sensor_id;sensor_type;location;lat;lon;timestamp;pressure;altitude;pressure_sealevel;temperature
76476;BMP280;65308;50.078;14.854;2023-08-06T00:02:13;98269.97;;;16.32
76476;BMP280;65308;50.078;14.854;2023-08-06T00:04:39;98260.44;;;16.31
76476;BMP280;65308;50.078;14.854;2023-08-06T00:07:08;98260.09;;;16.40
76476;BMP280;65308;50.078;14.854;2023-08-06T00:09:34;98261.69;;;16.60
76476;BMP280;65308;50.078;14.854;2023-08-06T00:12:01;98263.28;;;16.74
76476;BMP280;65308;50.078;14.854;2023-08-06T00:14:34;98265.97;;;16.74
76476;BMP280;65308;50.078;14.854;2023-08-06T00:17:02;98260.84;;;16.70
76476;BMP280;65308;50.078;14.854;2023-08-06T00:19:30;98256.97;;;16.66
76476;BMP280;65308;50.078;14.854;2023-08-06T00:21:57;98249.81;;;16.68
76476;BMP280;65308;50.078;14.854;2023-08-06T00:24:26;98246.66;;;16.64
76476;BMP280;65308;50.078;14.854;2023-08-06T00:26:53;98248.72;;;16.47
76476;BMP280;65308;50.078;14.854;2023-08-06T00:29:19;98239.25;;;16.40
76476;BMP280;65308;50.078;14.854;2023-08-06T00:31:46;98239.09;;;16.57
76476;BMP280;65308;50.078;14.854;2023-08-06T00:34:12;98240.84;;;16.55
76476;BMP280;65308;50.078;14.854;2023-08-06T00:36:39;98234.47;;;16.52
76476;BMP280;65308;50.078;14.854;2023-08-06T00:39:06;98233.63;;;16.68
76476;BMP280;65308;50.078;14.854;2023-08-06T00:41:34;98227.03;;;16.64
76476;BMP280;65308;50.078;14.854;2023-08-06T00:44:01;98219.13;;;16.66
76476;BMP280;65308;50.078;14.854;2023-08-06T00:46:28;98210.03;;;16.69
76476;BMP280;65308;50.078;14.854;2023-08-06T00:48:55;98211.25;;;16.68
76476;BMP280;65308;50.078;14.854;2023-08-06T00:51:24;98213.13;;;16.79
76476;BMP280;65308;50.078;14.854;2023-08-06T00:53:52;98217.75;;;16.84
76476;BMP280;65308;50.078;14.854;2023-08-06T00:56:19;98218.19;;;16.88
76476;BMP280;65308;50.078;14.854;2023-08-06T00:58:47;98215.97;;;16.86
76476;BMP280;65308;50.078;14.854;2023-08-06T01:01:13;98212.59;;;16.86
76476;BMP280;65308;50.078;14.854;2023-08-06T01:03:40;98209.63;;;16.84
76476;BMP280;65308;50.078;14.854;2023-08-06T01:06:07;98220.38;;;16.65
76476;BMP280;65308;50.078;14.854;2023-08-06T01:08:43;98213.06;;;16.60
76476;BMP280;65308;50.078;14.854;2023-08-06T01:11:23;98209.88;;;16.61
76476;BMP280;65308;50.078;14.854;2023-08-06T01:14:03;98209.78;;;16.67
76476;BMP280;65308;50.078;14.854;2023-08-06T01:16:32;98202.16;;;16.71
76476;BMP280;65308;50.078;14.854;2023-08-06T01:18:59;98200.97;;;16.66
76476;BMP280;65308;50.078;14.854;2023-08-06T01:21:27;98198.53;;;16.63
76476;BMP280;65308;50.078;14.854;2023-08-06T01:23:54;98196.22;;;16.72
76476;BMP280;65308;50.078;14.854;2023-08-06T01:26:25;98186.19;;;16.67
76476;BMP280;65308;50.078;14.854;2023-08-06T01:28:57;98189.09;;;16.75
76476;BMP280;65308;50.078;14.854;2023-08-06T01:31:27;98192.72;;;16.77
76476;BMP280;65308;50.078;14.854;2023-08-06T01:33:55;98183.50;;;16.67
76476;BMP280;65308;50.078;14.854;2023-08-06T01:36:23;98174.22;;;16.63
76476;BMP280;65308;50.078;14.854;2023-08-06T01:38:52;98168.88;;;16.57
76476;BMP280;65308;50.078;14.854;2023-08-06T01:41:19;98173.47;;;16.62
76476;BMP280;65308;50.078;14.854;2023-08-06T01:43:46;98182.69;;;16.48
76476;BMP280;65308;50.078;14.854;2023-08-06T01:46:12;98176.38;;;16.40
76476;BMP280;65308;50.078;14.854;2023-08-06T01:48:39;98189.31;;;16.47
76476;BMP280;65308;50.078;14.854;2023-08-06T01:51:06;98189.75;;;16.57
76476;BMP280;65308;50.078;14.854;2023-08-06T01:53:33;98193.09;;;16.68
76476;BMP280;65308;50.078;14.854;2023-08-06T01:56:01;98186.03;;;16.84
76476;BMP280;65308;50.078;14.854;2023-08-06T01:58:28;98186.66;;;16.96
76476;BMP280;65308;50.078;14.854;2023-08-06T02:00:54;98176.94;;;16.87
76476;BMP280;65308;50.078;14.854;2023-08-06T02:03:21;98166.94;;;16.76
76476;BMP280;65308;50.078;14.854;2023-08-06T02:05:48;98165.56;;;16.70
76476;BMP280;65308;50.078;14.854;2023-08-06T02:08:15;98171.97;;;16.67
76476;BMP280;65308;50.078;14.854;2023-08-06T02:10:41;98157.53;;;16.59
76476;BMP280;65308;50.078;14.854;2023-08-06T02:13:09;98163.00;;;16.53
76476;BMP280;65308;50.078;14.854;2023-08-06T02:15:36;98150.75;;;16.52
76476;BMP280;65308;50.078;14.854;2023-08-06T02:18:07;98150.13;;;16.40
76476;BMP280;65308;50.078;14.854;2023-08-06T02:20:34;98150.63;;;16.39
76476;BMP280;65308;50.078;14.854;2023-08-06T02:23:01;98147.59;;;16.48
76476;BMP280;65308;50.078;14.854;2023-08-06T02:25:27;98141.69;;;16.49
76476;BMP280;65308;50.078;14.854;2023-08-06T02:27:54;98139.41;;;16.59
76476;BMP280;65308;50.078;14.854;2023-08-06T02:30:22;98144.09;;;16.53
76476;BMP280;65308;50.078;14.854;2023-08-06T02:32:48;98134.47;;;16.33
76476;BMP280;65308;50.078;14.854;2023-08-06T02:35:15;98133.00;;;16.32
76476;BMP280;65308;50.078;14.854;2023-08-06T02:37:42;98142.28;;;16.37
76476;BMP280;65308;50.078;14.854;2023-08-06T02:40:09;98142.06;;;16.35
76476;BMP280;65308;50.078;14.854;2023-08-06T02:42:35;98138.97;;;16.25
76476;BMP280;65308;50.078;14.854;2023-08-06T02:45:03;98140.31;;;16.37
76476;BMP280;65308;50.078;14.854;2023-08-06T02:47:31;98151.25;;;16.26
76476;BMP280;65308;50.078;14.854;2023-08-06T02:49:58;98142.19;;;16.18
76476;BMP280;65308;50.078;14.854;2023-08-06T02:52:24;98139.00;;;16.19
76476;BMP280;65308;50.078;14.854;2023-08-06T02:54:51;98127.50;;;16.19
76476;BMP280;65308;50.078;14.854;2023-08-06T02:57:18;98123.75;;;16.22
76476;BMP280;65308;50.078;14.854;2023-08-06T02:59:44;98124.47;;;16.28
76476;BMP280;65308;50.078;14.854;2023-08-06T03:02:11;98112.22;;;16.21
76476;BMP280;65308;50.078;14.854;2023-08-06T03:04:39;98113.38;;;16.01
76476;BMP280;65308;50.078;14.854;2023-08-06T03:07:06;98114.09;;;16.02
76476;BMP280;65308;50.078;14.854;2023-08-06T03:09:32;98112.34;;;16.10
76476;BMP280;65308;50.078;14.854;2023-08-06T03:11:59;98124.50;;;16.22
76476;BMP280;65308;50.078;14.854;2023-08-06T03:14:25;98124.16;;;16.32
76476;BMP280;65308;50.078;14.854;2023-08-06T03:16:52;98128.53;;;16.40
76476;BMP280;65308;50.078;14.854;2023-08-06T03:19:18;98119.06;;;16.52
76476;BMP280;65308;50.078;14.854;2023-08-06T03:21:46;98107.53;;;16.52
76476;BMP280;65308;50.078;14.854;2023-08-06T03:24:13;98098.53;;;16.44
76476;BMP280;65308;50.078;14.854;2023-08-06T03:26:40;98101.91;;;16.25
76476;BMP280;65308;50.078;14.854;2023-08-06T03:29:06;98098.75;;;16.21
76476;BMP280;65308;50.078;14.854;2023-08-06T03:31:33;98101.44;;;16.21
76476;BMP280;65308;50.078;14.854;2023-08-06T03:34:00;98105.13;;;16.18
76476;BMP280;65308;50.078;14.854;2023-08-06T03:36:26;98101.72;;;16.18
76476;BMP280;65308;50.078;14.854;2023-08-06T03:38:54;98095.84;;;16.14
76476;BMP280;65308;50.078;14.854;2023-08-06T03:41:21;98087.53;;;16.12
76476;BMP280;65308;50.078;14.854;2023-08-06T03:43:48;98089.06;;;16.07
76476;BMP280;65308;50.078;14.854;2023-08-06T03:46:14;98084.94;;;16.00
76476;BMP280;65308;50.078;14.854;2023-08-06T03:48:41;98080.81;;;15.94
76476;BMP280;65308;50.078;14.854;2023-08-06T03:51:07;98076.38;;;15.96
76476;BMP280;65308;50.078;14.854;2023-08-06T03:53:34;98076.84;;;16.00
76476;BMP280;65308;50.078;14.854;2023-08-06T03:56:02;98069.69;;;16.03
76476;BMP280;65308;50.078;14.854;2023-08-06T03:58:29;98065.00;;;16.09
76476;BMP280;65308;50.078;14.854;2023-08-06T04:00:59;98057.56;;;16.15
76476;BMP280;65308;50.078;14.854;2023-08-06T04:03:26;98055.44;;;16.08
76476;BMP280;65308;50.078;14.854;2023-08-06T04:05:53;98050.75;;;16.09
76476;BMP280;65308;50.078;14.854;2023-08-06T04:08:20;98043.81;;;16.19
76476;BMP280;65308;50.078;14.854;2023-08-06T04:10:49;98045.00;;;16.23
76476;BMP280;65308;50.078;14.854;2023-08-06T04:13:17;98038.78;;;16.29
76476;BMP280;65308;50.078;14.854;2023-08-06T04:15:44;98038.00;;;16.34
76476;BMP280;65308;50.078;14.854;2023-08-06T04:18:10;98034.22;;;16.42
76476;BMP280;65308;50.078;14.854;2023-08-06T04:20:42;98032.78;;;16.41
76476;BMP280;65308;50.078;14.854;2023-08-06T04:23:11;98033.09;;;16.32
76476;BMP280;65308;50.078;14.854;2023-08-06T04:25:38;98027.59;;;16.43
76476;BMP280;65308;50.078;14.854;2023-08-06T04:28:06;98036.78;;;16.54
76476;BMP280;65308;50.078;14.854;2023-08-06T04:30:34;98038.50;;;16.57
76476;BMP280;65308;50.078;14.854;2023-08-06T04:33:03;98036.47;;;16.38
76476;BMP280;65308;50.078;14.854;2023-08-06T04:35:30;98036.72;;;16.40
76476;BMP280;65308;50.078;14.854;2023-08-06T04:37:56;98036.06;;;16.53
76476;BMP280;65308;50.078;14.854;2023-08-06T04:40:23;98034.06;;;16.59
76476;BMP280;65308;50.078;14.854;2023-08-06T04:42:49;98023.91;;;16.65
76476;BMP280;65308;50.078;14.854;2023-08-06T04:45:16;98016.38;;;16.77
76476;BMP280;65308;50.078;14.854;2023-08-06T04:47:44;98013.81;;;16.85
76476;BMP280;65308;50.078;14.854;2023-08-06T04:50:10;98021.72;;;16.83
76476;BMP280;65308;50.078;14.854;2023-08-06T04:52:37;98018.47;;;16.90
76476;BMP280;65308;50.078;14.854;2023-08-06T04:55:04;98020.78;;;16.99
76476;BMP280;65308;50.078;14.854;2023-08-06T04:57:31;98030.78;;;17.04
76476;BMP280;65308;50.078;14.854;2023-08-06T04:59:58;98023.03;;;17.14
76476;BMP280;65308;50.078;14.854;2023-08-06T05:02:24;98019.06;;;17.15
76476;BMP280;65308;50.078;14.854;2023-08-06T05:04:52;98018.19;;;17.25
76476;BMP280;65308;50.078;14.854;2023-08-06T05:07:19;98016.13;;;17.32
76476;BMP280;65308;50.078;14.854;2023-08-06T05:09:45;98019.97;;;17.36
76476;BMP280;65308;50.078;14.854;2023-08-06T05:12:12;98024.66;;;17.36
76476;BMP280;65308;50.078;14.854;2023-08-06T05:14:39;98019.16;;;17.28
76476;BMP280;65308;50.078;14.854;2023-08-06T05:17:05;98023.50;;;17.31
76476;BMP280;65308;50.078;14.854;2023-08-06T05:19:32;98028.41;;;17.33
76476;BMP280;65308;50.078;14.854;2023-08-06T05:22:00;98021.13;;;17.27
76476;BMP280;65308;50.078;14.854;2023-08-06T05:24:27;98024.00;;;17.29
76476;BMP280;65308;50.078;14.854;2023-08-06T05:26:54;98018.91;;;17.26
76476;BMP280;65308;50.078;14.854;2023-08-06T05:29:20;98022.56;;;17.28
76476;BMP280;65308;50.078;14.854;2023-08-06T05:31:47;98026.97;;;17.13
76476;BMP280;65308;50.078;14.854;2023-08-06T05:34:13;98020.69;;;17.23
76476;BMP280;65308;50.078;14.854;2023-08-06T05:36:40;98019.41;;;17.24
76476;BMP280;65308;50.078;14.854;2023-08-06T05:39:08;98026.22;;;17.31
76476;BMP280;65308;50.078;14.854;2023-08-06T05:41:34;98025.50;;;17.44
76476;BMP280;65308;50.078;14.854;2023-08-06T05:44:01;98029.81;;;17.52
76476;BMP280;65308;50.078;14.854;2023-08-06T05:46:27;98022.03;;;17.62
76476;BMP280;65308;50.078;14.854;2023-08-06T05:48:54;98024.66;;;17.68
76476;BMP280;65308;50.078;14.854;2023-08-06T05:51:21;98032.09;;;17.81
76476;BMP280;65308;50.078;14.854;2023-08-06T05:53:48;98025.00;;;17.91
76476;BMP280;65308;50.078;14.854;2023-08-06T05:56:18;98018.97;;;17.98
76476;BMP280;65308;50.078;14.854;2023-08-06T05:58:45;98030.66;;;18.06
76476;BMP280;65308;50.078;14.854;2023-08-06T06:01:12;98022.41;;;18.12
76476;BMP280;65308;50.078;14.854;2023-08-06T06:03:39;98016.47;;;18.13
76476;BMP280;65308;50.078;14.854;2023-08-06T06:06:06;98013.16;;;18.20
76476;BMP280;65308;50.078;14.854;2023-08-06T06:08:32;98014.19;;;18.30
76476;BMP280;65308;50.078;14.854;2023-08-06T06:10:59;98004.38;;;18.27
76476;BMP280;65308;50.078;14.854;2023-08-06T06:13:27;98005.19;;;18.36
76476;BMP280;65308;50.078;14.854;2023-08-06T06:15:54;98010.84;;;18.38
76476;BMP280;65308;50.078;14.854;2023-08-06T06:18:22;98014.59;;;18.48
76476;BMP280;65308;50.078;14.854;2023-08-06T06:20:50;98009.56;;;18.52
76476;BMP280;65308;50.078;14.854;2023-08-06T06:23:17;98012.69;;;18.56
76476;BMP280;65308;50.078;14.854;2023-08-06T06:25:43;98013.19;;;18.54
76476;BMP280;65308;50.078;14.854;2023-08-06T06:28:13;98017.69;;;18.52
76476;BMP280;65308;50.078;14.854;2023-08-06T06:30:42;98007.59;;;18.52
76476;BMP280;65308;50.078;14.854;2023-08-06T06:33:09;98009.66;;;18.60
76476;BMP280;65308;50.078;14.854;2023-08-06T06:35:36;98015.41;;;18.56
76476;BMP280;65308;50.078;14.854;2023-08-06T06:38:03;98013.97;;;18.55
76476;BMP280;65308;50.078;14.854;2023-08-06T06:40:30;98009.03;;;18.53
76476;BMP280;65308;50.078;14.854;2023-08-06T06:42:58;98009.66;;;18.60
76476;BMP280;65308;50.078;14.854;2023-08-06T06:45:25;98012.72;;;18.43
76476;BMP280;65308;50.078;14.854;2023-08-06T06:47:52;98017.09;;;18.46
76476;BMP280;65308;50.078;14.854;2023-08-06T06:50:20;98011.25;;;18.55
76476;BMP280;65308;50.078;14.854;2023-08-06T06:52:47;98011.63;;;18.59
76476;BMP280;65308;50.078;14.854;2023-08-06T06:55:13;98005.28;;;18.56
76476;BMP280;65308;50.078;14.854;2023-08-06T06:57:40;98015.81;;;18.60
76476;BMP280;65308;50.078;14.854;2023-08-06T07:00:07;98007.47;;;18.58
76476;BMP280;65308;50.078;14.854;2023-08-06T07:02:34;98005.91;;;18.49
76476;BMP280;65308;50.078;14.854;2023-08-06T07:05:02;98009.56;;;18.52
76476;BMP280;65308;50.078;14.854;2023-08-06T07:07:29;98010.50;;;18.54
76476;BMP280;65308;50.078;14.854;2023-08-06T07:09:56;98005.50;;;18.58
76476;BMP280;65308;50.078;14.854;2023-08-06T07:12:23;98004.34;;;18.54
76476;BMP280;65308;50.078;14.854;2023-08-06T07:14:50;98019.38;;;18.55
76476;BMP280;65308;50.078;14.854;2023-08-06T07:17:16;98003.88;;;18.29
76476;BMP280;65308;50.078;14.854;2023-08-06T07:19:43;98004.19;;;18.25
76476;BMP280;65308;50.078;14.854;2023-08-06T07:22:11;98000.97;;;18.27
76476;BMP280;65308;50.078;14.854;2023-08-06T07:24:38;97998.56;;;18.23
76476;BMP280;65308;50.078;14.854;2023-08-06T07:27:05;97993.66;;;18.22
76476;BMP280;65308;50.078;14.854;2023-08-06T07:29:32;98010.84;;;18.38
76476;BMP280;65308;50.078;14.854;2023-08-06T07:31:59;98000.34;;;18.34
76476;BMP280;65308;50.078;14.854;2023-08-06T07:34:25;97993.66;;;18.35
76476;BMP280;65308;50.078;14.854;2023-08-06T07:36:52;97985.53;;;18.35
76476;BMP280;65308;50.078;14.854;2023-08-06T07:39:20;97984.41;;;18.30
76476;BMP280;65308;50.078;14.854;2023-08-06T07:41:49;97982.09;;;18.35
76476;BMP280;65308;50.078;14.854;2023-08-06T07:44:18;97979.03;;;18.51
76476;BMP280;65308;50.078;14.854;2023-08-06T07:46:45;97988.19;;;18.62
76476;BMP280;65308;50.078;14.854;2023-08-06T07:49:11;97984.56;;;18.80
76476;BMP280;65308;50.078;14.854;2023-08-06T07:51:38;97980.16;;;18.90
76476;BMP280;65308;50.078;14.854;2023-08-06T07:54:05;97977.75;;;19.00
76476;BMP280;65308;50.078;14.854;2023-08-06T07:56:34;97980.06;;;18.96
76476;BMP280;65308;50.078;14.854;2023-08-06T07:59:02;97980.97;;;18.98
76476;BMP280;65308;50.078;14.854;2023-08-06T08:01:29;97983.69;;;18.98
76476;BMP280;65308;50.078;14.854;2023-08-06T08:03:55;97977.53;;;18.98
76476;BMP280;65308;50.078;14.854;2023-08-06T08:06:22;97978.19;;;18.91
76476;BMP280;65308;50.078;14.854;2023-08-06T08:08:50;97967.41;;;18.98
76476;BMP280;65308;50.078;14.854;2023-08-06T08:11:17;97966.56;;;19.03
76476;BMP280;65308;50.078;14.854;2023-08-06T08:13:45;97966.56;;;19.24
76476;BMP280;65308;50.078;14.854;2023-08-06T08:16:12;97966.09;;;19.33
76476;BMP280;65308;50.078;14.854;2023-08-06T08:18:38;97964.81;;;19.34
76476;BMP280;65308;50.078;14.854;2023-08-06T08:21:05;97970.97;;;19.35
76476;BMP280;65308;50.078;14.854;2023-08-06T08:23:32;97958.00;;;19.41
76476;BMP280;65308;50.078;14.854;2023-08-06T08:25:59;97967.00;;;19.36
76476;BMP280;65308;50.078;14.854;2023-08-06T08:28:27;97962.66;;;19.12
76476;BMP280;65308;50.078;14.854;2023-08-06T08:30:56;97958.63;;;19.05
76476;BMP280;65308;50.078;14.854;2023-08-06T08:33:23;97954.53;;;19.12
76476;BMP280;65308;50.078;14.854;2023-08-06T08:35:49;97947.56;;;19.03
76476;BMP280;65308;50.078;14.854;2023-08-06T08:38:17;97954.25;;;19.02
76476;BMP280;65308;50.078;14.854;2023-08-06T08:40:50;97952.81;;;19.01
76476;BMP280;65308;50.078;14.854;2023-08-06T08:43:20;97954.44;;;19.04
76476;BMP280;65308;50.078;14.854;2023-08-06T08:46:02;97953.94;;;19.06
76476;BMP280;65308;50.078;14.854;2023-08-06T08:48:30;97957.06;;;19.10
76476;BMP280;65308;50.078;14.854;2023-08-06T08:50:58;97951.34;;;19.21
76476;BMP280;65308;50.078;14.854;2023-08-06T08:53:30;97947.00;;;19.18
76476;BMP280;65308;50.078;14.854;2023-08-06T08:55:59;97939.19;;;19.15
76476;BMP280;65308;50.078;14.854;2023-08-06T08:58:26;97933.22;;;19.16
76476;BMP280;65308;50.078;14.854;2023-08-06T09:00:53;97932.31;;;19.14
76476;BMP280;65308;50.078;14.854;2023-08-06T09:03:22;97934.16;;;18.98
76476;BMP280;65308;50.078;14.854;2023-08-06T09:05:53;97922.41;;;18.95
76476;BMP280;65308;50.078;14.854;2023-08-06T09:08:26;97918.69;;;19.06
76476;BMP280;65308;50.078;14.854;2023-08-06T09:10:53;97910.34;;;19.04
76476;BMP280;65308;50.078;14.854;2023-08-06T09:13:20;97924.09;;;18.85
76476;BMP280;65308;50.078;14.854;2023-08-06T09:15:48;97915.22;;;18.84
76476;BMP280;65308;50.078;14.854;2023-08-06T09:18:26;97916.34;;;18.89
76476;BMP280;65308;50.078;14.854;2023-08-06T09:20:54;97914.84;;;19.22
76476;BMP280;65308;50.078;14.854;2023-08-06T09:23:20;97906.75;;;19.30
76476;BMP280;65308;50.078;14.854;2023-08-06T09:25:53;97914.75;;;19.35
76476;BMP280;65308;50.078;14.854;2023-08-06T09:28:20;97911.38;;;19.43
76476;BMP280;65308;50.078;14.854;2023-08-06T09:30:47;97903.16;;;19.35
76476;BMP280;65308;50.078;14.854;2023-08-06T09:33:17;97899.84;;;19.00
76476;BMP280;65308;50.078;14.854;2023-08-06T09:35:46;97906.84;;;18.75
76476;BMP280;65308;50.078;14.854;2023-08-06T09:38:13;97905.56;;;18.76
76476;BMP280;65308;50.078;14.854;2023-08-06T09:44:01;97891.19;;;18.60
76476;BMP280;65308;50.078;14.854;2023-08-06T09:46:28;97891.94;;;18.47
76476;BMP280;65308;50.078;14.854;2023-08-06T09:48:55;97891.91;;;18.61
76476;BMP280;65308;50.078;14.854;2023-08-06T09:51:23;97891.97;;;18.68
76476;BMP280;65308;50.078;14.854;2023-08-06T09:53:50;97891.78;;;18.66
76476;BMP280;65308;50.078;14.854;2023-08-06T09:56:18;97894.28;;;18.64
76476;BMP280;65308;50.078;14.854;2023-08-06T09:58:47;97892.03;;;18.76
76476;BMP280;65308;50.078;14.854;2023-08-06T10:01:13;97891.16;;;19.02
76476;BMP280;65308;50.078;14.854;2023-08-06T10:03:42;97887.44;;;19.33
76476;BMP280;65308;50.078;14.854;2023-08-06T10:06:10;97887.84;;;19.45
76476;BMP280;65308;50.078;14.854;2023-08-06T10:08:38;97886.09;;;19.55
76476;BMP280;65308;50.078;14.854;2023-08-06T10:11:07;97879.88;;;19.76
76476;BMP280;65308;50.078;14.854;2023-08-06T10:13:36;97884.75;;;19.70
76476;BMP280;65308;50.078;14.854;2023-08-06T10:16:04;97879.34;;;19.77
76476;BMP280;65308;50.078;14.854;2023-08-06T10:18:31;97886.22;;;19.78
76476;BMP280;65308;50.078;14.854;2023-08-06T10:20:59;97879.00;;;19.88
76476;BMP280;65308;50.078;14.854;2023-08-06T10:23:33;97876.03;;;20.07
76476;BMP280;65308;50.078;14.854;2023-08-06T10:26:01;97882.72;;;20.14
76476;BMP280;65308;50.078;14.854;2023-08-06T10:28:34;97879.31;;;20.36
76476;BMP280;65308;50.078;14.854;2023-08-06T10:31:01;97887.88;;;20.48
76476;BMP280;65308;50.078;14.854;2023-08-06T10:33:40;97878.13;;;20.68
76476;BMP280;65308;50.078;14.854;2023-08-06T10:36:08;97874.47;;;20.73
76476;BMP280;65308;50.078;14.854;2023-08-06T10:38:36;97870.84;;;20.78
76476;BMP280;65308;50.078;14.854;2023-08-06T10:41:15;97875.19;;;20.81
76476;BMP280;65308;50.078;14.854;2023-08-06T10:43:42;97872.66;;;20.83
76476;BMP280;65308;50.078;14.854;2023-08-06T10:46:11;97882.81;;;21.06
76476;BMP280;65308;50.078;14.854;2023-08-06T10:48:37;97876.81;;;21.07
76476;BMP280;65308;50.078;14.854;2023-08-06T10:51:08;97882.03;;;21.28
76476;BMP280;65308;50.078;14.854;2023-08-06T10:53:34;97868.19;;;21.49
76476;BMP280;65308;50.078;14.854;2023-08-06T10:56:02;97878.31;;;21.64
76476;BMP280;65308;50.078;14.854;2023-08-06T10:58:32;97873.56;;;21.72
76476;BMP280;65308;50.078;14.854;2023-08-06T11:01:01;97868.47;;;21.76
76476;BMP280;65308;50.078;14.854;2023-08-06T11:03:28;97872.84;;;21.71
76476;BMP280;65308;50.078;14.854;2023-08-06T11:05:55;97868.00;;;21.62
76476;BMP280;65308;50.078;14.854;2023-08-06T11:08:25;97870.75;;;21.39
76476;BMP280;65308;50.078;14.854;2023-08-06T11:10:51;97868.94;;;21.42
76476;BMP280;65308;50.078;14.854;2023-08-06T11:13:18;97872.59;;;21.37
76476;BMP280;65308;50.078;14.854;2023-08-06T11:15:47;97872.97;;;21.26
76476;BMP280;65308;50.078;14.854;2023-08-06T11:18:14;97880.78;;;21.21
76476;BMP280;65308;50.078;14.854;2023-08-06T11:20:40;97875.75;;;21.10
76476;BMP280;65308;50.078;14.854;2023-08-06T11:23:10;97875.19;;;21.12
76476;BMP280;65308;50.078;14.854;2023-08-06T11:25:44;97873.72;;;21.18
76476;BMP280;65308;50.078;14.854;2023-08-06T11:28:11;97869.41;;;21.08
76476;BMP280;65308;50.078;14.854;2023-08-06T11:30:37;97869.41;;;20.85
76476;BMP280;65308;50.078;14.854;2023-08-06T11:33:07;97873.19;;;20.74
76476;BMP280;65308;50.078;14.854;2023-08-06T11:35:35;97883.38;;;20.66
76476;BMP280;65308;50.078;14.854;2023-08-06T11:38:02;97882.81;;;20.60
76476;BMP280;65308;50.078;14.854;2023-08-06T11:40:28;97885.34;;;20.50
76476;BMP280;65308;50.078;14.854;2023-08-06T11:42:56;97876.41;;;20.27
76476;BMP280;65308;50.078;14.854;2023-08-06T11:45:23;97882.50;;;19.97
76476;BMP280;65308;50.078;14.854;2023-08-06T11:47:51;97882.84;;;20.01
76476;BMP280;65308;50.078;14.854;2023-08-06T11:50:23;97879.81;;;20.12
76476;BMP280;65308;50.078;14.854;2023-08-06T11:52:53;97883.84;;;20.26
76476;BMP280;65308;50.078;14.854;2023-08-06T11:55:22;97884.97;;;20.38
76476;BMP280;65308;50.078;14.854;2023-08-06T11:57:50;97888.94;;;20.30
76476;BMP280;65308;50.078;14.854;2023-08-06T12:00:17;97894.38;;;20.53
76476;BMP280;65308;50.078;14.854;2023-08-06T12:02:46;97891.88;;;20.47
76476;BMP280;65308;50.078;14.854;2023-08-06T12:05:15;97890.19;;;20.36
76476;BMP280;65308;50.078;14.854;2023-08-06T12:07:45;97886.75;;;20.28
76476;BMP280;65308;50.078;14.854;2023-08-06T12:10:12;97884.38;;;20.25
76476;BMP280;65308;50.078;14.854;2023-08-06T12:12:39;97887.97;;;20.12
76476;BMP280;65308;50.078;14.854;2023-08-06T12:15:06;97886.34;;;20.09
76476;BMP280;65308;50.078;14.854;2023-08-06T12:17:34;97881.97;;;20.06
76476;BMP280;65308;50.078;14.854;2023-08-06T12:20:01;97881.84;;;20.11
76476;BMP280;65308;50.078;14.854;2023-08-06T12:22:29;97880.53;;;20.05
76476;BMP280;65308;50.078;14.854;2023-08-06T12:25:01;97886.53;;;20.11
76476;BMP280;65308;50.078;14.854;2023-08-06T12:27:28;97887.31;;;20.34
76476;BMP280;65308;50.078;14.854;2023-08-06T12:29:55;97894.59;;;20.55
76476;BMP280;65308;50.078;14.854;2023-08-06T12:32:22;97895.16;;;20.68
76476;BMP280;65308;50.078;14.854;2023-08-06T12:34:49;97892.63;;;20.93
76476;BMP280;65308;50.078;14.854;2023-08-06T12:37:17;97889.31;;;21.03
76476;BMP280;65308;50.078;14.854;2023-08-06T12:39:43;97887.16;;;21.09
76476;BMP280;65308;50.078;14.854;2023-08-06T12:42:11;97890.38;;;21.30
76476;BMP280;65308;50.078;14.854;2023-08-06T12:44:38;97893.84;;;21.23
76476;BMP280;65308;50.078;14.854;2023-08-06T12:47:05;97887.88;;;21.09
76476;BMP280;65308;50.078;14.854;2023-08-06T12:49:31;97889.34;;;21.10
76476;BMP280;65308;50.078;14.854;2023-08-06T12:51:59;97891.88;;;21.16
76476;BMP280;65308;50.078;14.854;2023-08-06T12:54:26;97899.13;;;21.06
76476;BMP280;65308;50.078;14.854;2023-08-06T12:56:53;97896.78;;;20.94
76476;BMP280;65308;50.078;14.854;2023-08-06T12:59:22;97895.16;;;20.76
76476;BMP280;65308;50.078;14.854;2023-08-06T13:01:48;97890.41;;;20.61
76476;BMP280;65308;50.078;14.854;2023-08-06T13:04:15;97901.88;;;20.67
76476;BMP280;65308;50.078;14.854;2023-08-06T13:06:42;97899.50;;;20.72
76476;BMP280;65308;50.078;14.854;2023-08-06T13:09:09;97891.88;;;20.62
76476;BMP280;65308;50.078;14.854;2023-08-06T13:11:36;97902.25;;;20.79
76476;BMP280;65308;50.078;14.854;2023-08-06T13:14:06;97900.94;;;20.73
76476;BMP280;65308;50.078;14.854;2023-08-06T13:16:37;97895.50;;;20.73
76476;BMP280;65308;50.078;14.854;2023-08-06T13:19:06;97896.59;;;20.85
76476;BMP280;65308;50.078;14.854;2023-08-06T13:21:33;97896.97;;;20.89
76476;BMP280;65308;50.078;14.854;2023-08-06T13:24:01;97901.31;;;21.00
76476;BMP280;65308;50.078;14.854;2023-08-06T13:26:28;97900.59;;;20.99
76476;BMP280;65308;50.078;14.854;2023-08-06T13:28:56;97905.13;;;20.89
76476;BMP280;65308;50.078;14.854;2023-08-06T13:31:23;97907.81;;;20.97
76476;BMP280;65308;50.078;14.854;2023-08-06T13:33:54;97909.28;;;21.05
76476;BMP280;65308;50.078;14.854;2023-08-06T13:36:23;97910.19;;;21.23
76476;BMP280;65308;50.078;14.854;2023-08-06T13:38:49;97911.06;;;21.26
76476;BMP280;65308;50.078;14.854;2023-08-06T13:41:16;97909.41;;;21.38
76476;BMP280;65308;50.078;14.854;2023-08-06T13:43:44;97911.94;;;21.43
76476;BMP280;65308;50.078;14.854;2023-08-06T13:46:11;97911.38;;;21.53
76476;BMP280;65308;50.078;14.854;2023-08-06T13:48:41;97912.97;;;21.63
76476;BMP280;65308;50.078;14.854;2023-08-06T13:51:09;97914.03;;;21.75
76476;BMP280;65308;50.078;14.854;2023-08-06T13:53:36;97910.38;;;21.88
76476;BMP280;65308;50.078;14.854;2023-08-06T13:56:04;97909.59;;;21.95
76476;BMP280;65308;50.078;14.854;2023-08-06T13:58:30;97917.00;;;22.02
76476;BMP280;65308;50.078;14.854;2023-08-06T14:00:57;97913.41;;;22.00
76476;BMP280;65308;50.078;14.854;2023-08-06T14:03:24;97910.59;;;22.15